Time;durP1;ratioP1;P1;durP2;ratioP2;P2;SDS_P1;SDS_P2;PMS_P1;PMS_P2;Temp;Humidity;BMP_temperature;BMP_pressure;BME280_temperature;BME280_humidity;BME280_pressure;Samples;Min_cycle;Max_cycle;Signal;HPM_P1;HPM_P2
2021/09/25 00:01:51;;;;;;;7.15;3.80;;;;;;;;;;4344326;33;20171;-77
2021/09/25 00:04:17;;;;;;;6.28;3.40;;;;;;;;;;4318466;33;20155;-77
2021/09/25 00:06:42;;;;;;;7.25;3.40;;;;;;;;;;4318850;33;20191;-77
2021/09/25 00:09:20;;;;;;;7.97;4.03;;;;;;;;;;4318652;33;20152;-77
2021/09/25 00:11:54;;;;;;;8.80;3.97;;;;;;;;;;4319426;33;20155;-77
2021/09/25 00:14:22;;;;;;;10.38;3.92;;;;;;;;;;4321762;33;20171;-76
2021/09/25 00:16:50;;;;;;;7.15;3.67;;;;;;;;;;4333273;33;20193;-76
2021/09/25 00:19:18;;;;;;;12.98;3.80;;;;;;;;;;4332822;33;20151;-76
2021/09/25 00:21:44;;;;;;;10.90;4.05;;;;;;;;;;4333084;33;20156;-76
2021/09/25 00:24:13;;;;;;;13.90;4.65;;;;;;;;;;4346031;33;20192;-76
2021/09/25 00:26:38;;;;;;;12.63;5.00;;;;;;;;;;4332158;33;20183;-77
2021/09/25 00:29:03;;;;;;;14.75;5.53;;;;;;;;;;4323205;33;20492;-76
2021/09/25 00:31:29;;;;;;;12.80;5.22;;;;;;;;;;4317903;33;20478;-76
2021/09/25 00:33:54;;;;;;;11.60;4.85;;;;;;;;;;4318910;33;20155;-76
2021/09/25 00:36:25;;;;;;;9.40;4.30;;;;;;;;;;4331400;33;20132;-76
2021/09/25 00:38:50;;;;;;;12.45;4.30;;;;;;;;;;4318106;33;20219;-76
2021/09/25 00:41:27;;;;;;;6.57;3.67;;;;;;;;;;4318207;33;20546;-76
2021/09/25 00:46:40;;;;;;;6.90;3.83;;;;;;;;;;4320444;33;20194;-76
2021/09/25 00:52:17;;;;;;;11.85;4.22;;;;;;;;;;4288583;33;20149;-76
2021/09/25 00:54:43;;;;;;;8.45;4.15;;;;;;;;;;4331350;33;20282;-76
2021/09/25 00:57:08;;;;;;;9.57;4.05;;;;;;;;;;4332166;33;20246;-76
2021/09/25 00:59:42;;;;;;;9.77;4.35;;;;;;;;;;4332797;33;20238;-76
2021/09/25 01:02:07;;;;;;;15.63;4.78;;;;;;;;;;4332255;33;20198;-76
2021/09/25 01:04:36;;;;;;;10.88;4.45;;;;;;;;;;4332587;33;20147;-76
2021/09/25 01:07:47;;;;;;;9.93;4.43;;;;;;;;;;4332601;33;20291;-77
2021/09/25 01:10:10;;;;;;;9.10;4.50;;;;;;;;;;4337440;33;20159;-76
2021/09/25 01:15:51;;;;;;;8.88;4.50;;;;;;;;;;4345702;33;20155;-78
2021/09/25 01:18:40;;;;;;;9.55;4.93;;;;;;;;;;4346169;33;20124;-78
2021/09/25 01:21:44;;;;;;;;;;;;;;;;;;;;;
2021/09/25 01:24:43;;;;;;;12.98;5.37;;;;;;;;;;4314063;33;20155;-78
2021/09/25 01:27:08;;;;;;;11.30;4.93;;;;;;;;;;4331131;33;20140;-78
2021/09/25 01:30:00;;;;;;;13.65;4.70;;;;;;;;;;4331588;33;20179;-78
2021/09/25 01:32:31;;;;;;;10.20;5.05;;;;;;;;;;4301039;33;20225;-78
2021/09/25 01:35:10;;;;;;;10.32;5.30;;;;;;;;;;4317830;33;20172;-78
2021/09/25 01:37:49;;;;;;;10.80;5.72;;;;;;;;;;4330454;33;20554;-77
2021/09/25 01:40:20;;;;;;;9.43;5.53;;;;;;;;;;4315440;33;20179;-77
2021/09/25 01:42:46;;;;;;;12.05;5.43;;;;;;;;;;4317103;33;20581;-77
2021/09/25 01:45:17;;;;;;;13.48;5.68;;;;;;;;;;4318016;33;20156;-77
2021/09/25 01:47:51;;;;;;;11.10;5.22;;;;;;;;;;4317512;33;20562;-77
2021/09/25 01:50:17;;;;;;;10.57;5.37;;;;;;;;;;4317152;33;20193;-77
2021/09/25 01:52:42;;;;;;;13.93;5.90;;;;;;;;;;4331210;33;20128;-77
2021/09/25 01:55:20;;;;;;;13.77;6.30;;;;;;;;;;4317478;33;20156;-77
2021/09/25 01:57:46;;;;;;;11.50;6.22;;;;;;;;;;4317203;33;20214;-77
2021/09/25 02:03:19;;;;;;;;;;;;;;;;;;;;;
2021/09/25 02:05:45;;;;;;;9.80;5.90;;;;;;;;;;4331521;33;20174;-77
2021/09/25 02:08:14;;;;;;;8.85;5.70;;;;;;;;;;4319773;33;20163;-76
2021/09/25 02:10:42;;;;;;;12.10;6.37;;;;;;;;;;4319881;33;20217;-76
2021/09/25 02:13:29;;;;;;;15.02;6.10;;;;;;;;;;4319716;33;20160;-76
2021/09/25 02:15:54;;;;;;;13.60;5.97;;;;;;;;;;4313038;33;20280;-77
2021/09/25 02:18:30;;;;;;;11.90;6.20;;;;;;;;;;4305229;33;20518;-76
2021/09/25 02:20:56;;;;;;;13.23;6.20;;;;;;;;;;4304685;33;20156;-77
2021/09/25 02:23:52;;;;;;;11.02;6.47;;;;;;;;;;4316590;33;20163;-77
2021/09/25 02:26:34;;;;;;;11.32;6.37;;;;;;;;;;4326325;33;20243;-77
2021/09/25 02:29:09;;;;;;;;;;;;;;;;;;;;;
2021/09/25 02:32:32;;;;;;;17.80;6.62;;;;;;;;;;4333059;33;20189;-77
2021/09/25 02:34:57;;;;;;;15.77;7.95;;;;;;;;;;4237543;33;20183;-76
2021/09/25 02:40:36;;;;;;;17.83;9.10;;;;;;;;;;4251993;33;20189;-77
2021/09/25 02:43:05;;;;;;;18.00;8.57;;;;;;;;;;4259077;33;20175;-77
2021/09/25 02:48:25;;;;;;;15.05;7.78;;;;;;;;;;4245344;33;20149;-77
2021/09/25 02:50:56;;;;;;;16.05;7.12;;;;;;;;;;4258505;33;20145;-76
2021/09/25 02:53:43;;;;;;;15.23;6.95;;;;;;;;;;4315058;33;20198;-77
2021/09/25 02:56:34;;;;;;;14.13;7.45;;;;;;;;;;4317009;33;20155;-76
2021/09/25 02:59:09;;;;;;;13.55;6.90;;;;;;;;;;4295410;33;20168;-76
2021/09/25 03:01:37;;;;;;;17.40;7.45;;;;;;;;;;4315854;33;20222;-77
2021/09/25 03:04:03;;;;;;;15.25;7.55;;;;;;;;;;4331340;33;20248;-77
2021/09/25 03:06:28;;;;;;;15.15;7.03;;;;;;;;;;4318579;33;20497;-77
2021/09/25 03:08:53;;;;;;;14.55;7.20;;;;;;;;;;4331354;33;20152;-76
2021/09/25 03:11:21;;;;;;;14.23;7.75;;;;;;;;;;4321703;33;20222;-77
2021/09/25 03:13:49;;;;;;;17.08;7.68;;;;;;;;;;4316587;33;20179;-76
2021/09/25 03:16:18;;;;;;;17.83;7.57;;;;;;;;;;4316446;33;20156;-77
2021/09/25 03:18:45;;;;;;;18.17;8.13;;;;;;;;;;4317397;33;20186;-76
2021/09/25 03:21:11;;;;;;;16.83;8.63;;;;;;;;;;4330905;33;20148;-77
2021/09/25 03:23:36;;;;;;;16.00;8.05;;;;;;;;;;4326156;33;20171;-76
2021/09/25 03:26:01;;;;;;;15.45;7.78;;;;;;;;;;4329507;33;20155;-77
2021/09/25 03:28:32;;;;;;;17.87;8.27;;;;;;;;;;4316419;33;20156;-77
2021/09/25 03:31:16;;;;;;;;;;;;;;;;;;;;;
2021/09/25 03:33:46;;;;;;;19.67;9.88;;;;;;;;;;4300906;33;20164;-77
2021/09/25 03:36:11;;;;;;;27.13;11.50;;;;;;;;;;4316348;33;20502;-76
2021/09/25 03:38:56;;;;;;;28.62;12.68;;;;;;;;;;4316330;33;20160;-77
2021/09/25 03:41:21;;;;;;;22.42;10.98;;;;;;;;;;4304432;33;20160;-76
2021/09/25 03:43:50;;;;;;;19.25;10.20;;;;;;;;;;4316467;33;20275;-76
2021/09/25 03:46:18;;;;;;;17.73;9.75;;;;;;;;;;4316451;33;20175;-77
2021/09/25 03:49:14;;;;;;;19.90;9.73;;;;;;;;;;4316650;33;20160;-77
2021/09/25 03:52:06;;;;;;;21.62;9.80;;;;;;;;;;4304012;33;20207;-77
2021/09/25 03:55:05;;;;;;;23.35;10.48;;;;;;;;;;4325473;33;20218;-76
2021/09/25 03:57:32;;;;;;;21.67;10.23;;;;;;;;;;4329776;33;20475;-77
2021/09/25 04:00:03;;;;;;;18.75;10.43;;;;;;;;;;4318956;33;20206;-77
2021/09/25 04:02:29;;;;;;;17.30;9.40;;;;;;;;;;4318245;33;20213;-77
2021/09/25 04:04:54;;;;;;;22.60;10.40;;;;;;;;;;4331725;33;20144;-77
2021/09/25 04:07:20;;;;;;;19.65;11.27;;;;;;;;;;4318214;33;20186;-77
2021/09/25 04:09:48;;;;;;;19.15;11.15;;;;;;;;;;4317826;33;20152;-77
2021/09/25 04:12:23;;;;;;;26.20;11.20;;;;;;;;;;4317881;33;20159;-77
2021/09/25 04:14:48;;;;;;;24.48;10.93;;;;;;;;;;4318261;33;20222;-76
2021/09/25 04:17:13;;;;;;;22.50;11.15;;;;;;;;;;4318155;33;20163;-76
2021/09/25 04:19:41;;;;;;;26.37;12.10;;;;;;;;;;4318214;33;20667;-77
2021/09/25 04:22:06;;;;;;;23.98;11.85;;;;;;;;;;4317568;33;20246;-77
2021/09/25 04:24:34;;;;;;;22.02;11.23;;;;;;;;;;4318109;33;20210;-77
2021/09/25 04:27:03;;;;;;;20.42;11.50;;;;;;;;;;4306003;33;20186;-77
2021/09/25 04:29:31;;;;;;;26.00;12.32;;;;;;;;;;4322284;33;20174;-77
2021/09/25 04:31:56;;;;;;;22.70;11.95;;;;;;;;;;4315240;33;20606;-77
2021/09/25 04:34:29;;;;;;;18.67;11.25;;;;;;;;;;4313610;33;20160;-77
2021/09/25 04:37:04;;;;;;;25.15;11.90;;;;;;;;;;4307713;33;20207;-78
2021/09/25 04:39:32;;;;;;;29.65;13.62;;;;;;;;;;4303360;33;20236;-78
2021/09/25 04:41:57;;;;;;;30.08;12.35;;;;;;;;;;4302817;33;20494;-78
2021/09/25 04:44:22;;;;;;;27.33;13.35;;;;;;;;;;4303180;33;20155;-77
2021/09/25 04:46:47;;;;;;;23.35;12.85;;;;;;;;;;4303350;33;20234;-77
2021/09/25 04:49:16;;;;;;;30.50;12.65;;;;;;;;;;4303413;33;20156;-77
2021/09/25 04:51:42;;;;;;;25.92;12.15;;;;;;;;;;4304004;33;20199;-77
2021/09/25 04:54:14;;;;;;;24.33;12.25;;;;;;;;;;4303400;33;20160;-77
2021/09/25 04:56:47;;;;;;;28.60;12.48;;;;;;;;;;4303243;33;20187;-77
2021/09/25 04:59:46;;;;;;;23.10;12.68;;;;;;;;;;4304197;33;20187;-77
2021/09/25 05:02:04;;;;;;;30.30;13.23;;;;;;;;;;4326459;33;20491;-77
2021/09/25 05:04:53;;;;;;;30.92;13.50;;;;;;;;;;4317772;33;20262;-76
2021/09/25 05:07:15;;;;;;;29.30;13.55;;;;;;;;;;4330167;33;20159;-77
2021/09/25 05:09:40;;;;;;;32.47;12.73;;;;;;;;;;4317376;33;20164;-76
2021/09/25 05:12:06;;;;;;;32.10;13.80;;;;;;;;;;4323781;33;20239;-76
2021/09/25 05:14:33;;;;;;;31.20;13.32;;;;;;;;;;4332419;33;20155;-77
2021/09/25 05:16:58;;;;;;;29.77;13.90;;;;;;;;;;4345321;33;20158;-77
2021/09/25 05:19:24;;;;;;;28.20;13.80;;;;;;;;;;4331878;33;20167;-76
2021/09/25 05:21:52;;;;;;;31.35;14.48;;;;;;;;;;4332025;33;20195;-77
2021/09/25 05:24:19;;;;;;;26.87;13.38;;;;;;;;;;4332179;33;20497;-76
2021/09/25 05:27:06;;;;;;;30.77;13.70;;;;;;;;;;4331809;33;20158;-77
2021/09/25 05:29:30;;;;;;;32.25;14.43;;;;;;;;;;4344555;33;20230;-76
2021/09/25 05:32:12;;;;;;;28.85;13.13;;;;;;;;;;4331603;33;20581;-77
2021/09/25 05:34:48;;;;;;;;;;;;;;;;;;;;;
2021/09/25 05:37:16;;;;;;;33.47;13.18;;;;;;;;;;4345918;33;20158;-77
2021/09/25 05:40:35;;;;;;;31.02;13.95;;;;;;;;;;4329381;33;20159;-76
2021/09/25 05:42:35;;;;;;;31.00;14.20;;;;;;;;;;4334581;33;20581;-77
2021/09/25 05:45:09;;;;;;;34.05;13.90;;;;;;;;;;4331709;33;20186;-76
2021/09/25 05:47:35;;;;;;;28.80;14.45;;;;;;;;;;4332007;33;20181;-76
2021/09/25 05:50:21;;;;;;;30.10;14.15;;;;;;;;;;4331651;33;20540;-76
2021/09/25 05:52:45;;;;;;;31.33;13.85;;;;;;;;;;4344977;33;20218;-76
2021/09/25 05:55:14;;;;;;;35.35;14.70;;;;;;;;;;4332649;33;20171;-77
2021/09/25 05:57:45;;;;;;;36.08;15.60;;;;;;;;;;4331582;33;20198;-76
2021/09/25 06:00:11;;;;;;;31.02;15.38;;;;;;;;;;4345767;33;20140;-76
2021/09/25 06:02:38;;;;;;;33.35;14.93;;;;;;;;;;4331607;33;20175;-71
2021/09/25 06:05:03;;;;;;;35.10;16.08;;;;;;;;;;4332417;33;20163;-71
2021/09/25 06:07:29;;;;;;;36.13;16.30;;;;;;;;;;4331626;33;20198;-72
2021/09/25 06:09:54;;;;;;;37.43;16.13;;;;;;;;;;4344645;33;20140;-72
2021/09/25 06:12:19;;;;;;;36.10;16.08;;;;;;;;;;4344178;33;20290;-70
2021/09/25 06:14:45;;;;;;;37.72;16.92;;;;;;;;;;4331717;33;20190;-77
2021/09/25 06:17:11;;;;;;;34.17;14.75;;;;;;;;;;4331283;33;20155;-77
2021/09/25 06:19:36;;;;;;;31.35;15.13;;;;;;;;;;4345259;33;20223;-76
2021/09/25 06:22:10;;;;;;;29.80;15.05;;;;;;;;;;4322782;33;20167;-77
2021/09/25 06:24:38;;;;;;;38.72;16.98;;;;;;;;;;4317088;33;20194;-76
2021/09/25 06:27:03;;;;;;;29.92;15.68;;;;;;;;;;4316832;33;20159;-76
2021/09/25 06:29:29;;;;;;;33.65;15.35;;;;;;;;;;4316800;33;20226;-75
2021/09/25 06:31:56;;;;;;;36.13;15.90;;;;;;;;;;4318535;33;20164;-78
2021/09/25 06:34:24;;;;;;;34.13;14.57;;;;;;;;;;4327876;33;20167;-76
2021/09/25 06:36:50;;;;;;;29.48;14.77;;;;;;;;;;4325139;33;20272;-76
2021/09/25 06:39:15;;;;;;;30.17;14.87;;;;;;;;;;4325382;33;20160;-76
2021/09/25 06:41:51;;;;;;;32.70;15.48;;;;;;;;;;4334634;33;20211;-77
2021/09/25 06:44:16;;;;;;;33.20;14.55;;;;;;;;;;4319960;33;20253;-78
2021/09/25 06:46:41;;;;;;;35.50;16.85;;;;;;;;;;4318860;33;20152;-76
2021/09/25 06:49:07;;;;;;;33.58;14.55;;;;;;;;;;4333048;33;20159;-76
2021/09/25 06:51:35;;;;;;;33.10;16.10;;;;;;;;;;4319949;33;20167;-77
2021/09/25 06:54:08;;;;;;;32.45;14.68;;;;;;;;;;4319446;33;20152;-77
2021/09/25 06:56:36;;;;;;;40.97;16.12;;;;;;;;;;4343029;33;20167;-77
2021/09/25 06:59:04;;;;;;;37.55;16.73;;;;;;;;;;4331967;33;20600;-78
2021/09/25 07:01:37;;;;;;;39.55;18.27;;;;;;;;;;4333644;33;20203;-78
2021/09/25 07:04:09;;;;;;;37.20;16.87;;;;;;;;;;4347713;33;20132;-76
2021/09/25 07:06:39;;;;;;;35.75;17.17;;;;;;;;;;4334215;33;20270;-77
2021/09/25 07:09:09;;;;;;;36.75;16.70;;;;;;;;;;4333745;33;20163;-77
2021/09/25 07:18:04;;;;;;;36.85;17.05;;;;;;;;;;4338298;33;20154;-77
2021/09/25 07:20:30;;;;;;;38.58;19.08;;;;;;;;;;4333856;33;20240;-76
2021/09/25 07:22:58;;;;;;;42.38;19.37;;;;;;;;;;4336271;33;20151;-76
2021/09/25 07:25:51;;;;;;;41.55;18.92;;;;;;;;;;4318969;33;20574;-76
2021/09/25 07:28:16;;;;;;;39.22;18.05;;;;;;;;;;4332250;33;20194;-77
2021/09/25 07:30:43;;;;;;;34.28;18.50;;;;;;;;;;4332677;33;20148;-77
2021/09/25 07:33:09;;;;;;;34.33;16.85;;;;;;;;;;4332489;33;20140;-77
2021/09/25 07:35:35;;;;;;;31.23;17.12;;;;;;;;;;4318724;33;20175;-77
2021/09/25 07:38:04;;;;;;;34.38;17.75;;;;;;;;;;4332021;33;20167;-77
2021/09/25 07:40:41;;;;;;;33.38;18.37;;;;;;;;;;4320309;33;20278;-77
2021/09/25 07:43:07;;;;;;;37.65;19.77;;;;;;;;;;4328089;33;20148;-77
2021/09/25 07:45:38;;;;;;;36.33;17.73;;;;;;;;;;4318646;33;20156;-78
2021/09/25 07:48:04;;;;;;;38.22;16.73;;;;;;;;;;4332538;33;20266;-77
2021/09/25 07:50:37;;;;;;;36.97;16.58;;;;;;;;;;4318985;33;20551;-78
2021/09/25 07:53:02;;;;;;;34.05;17.12;;;;;;;;;;4320592;33;20557;-75
2021/09/25 07:55:31;;;;;;;34.28;17.92;;;;;;;;;;4328297;33;20245;-76
2021/09/25 07:57:56;;;;;;;35.30;17.92;;;;;;;;;;4330499;33;20628;-76
2021/09/25 08:02:59;;;;;;;41.20;18.67;;;;;;;;;;4345590;33;20178;-77
2021/09/25 08:05:24;;;;;;;36.85;18.02;;;;;;;;;;4319191;33;20148;-78
2021/09/25 08:10:56;;;;;;;37.17;19.70;;;;;;;;;;4326120;33;20205;-77
2021/09/25 08:13:48;;;;;;;38.50;19.40;;;;;;;;;;4331119;33;20167;-77
2021/09/25 08:16:19;;;;;;;40.28;20.30;;;;;;;;;;4318142;33;20171;-77
2021/09/25 08:18:44;;;;;;;40.67;20.75;;;;;;;;;;4324022;33;20167;-77
2021/09/25 08:21:35;;;;;;;42.03;19.98;;;;;;;;;;4328610;33;20182;-77
2021/09/25 08:24:13;;;;;;;42.85;20.50;;;;;;;;;;4323963;33;20218;-77
2021/09/25 08:26:38;;;;;;;37.05;18.17;;;;;;;;;;4317956;33;20429;-77
2021/09/25 08:29:13;;;;;;;37.17;20.12;;;;;;;;;;4317757;33;20186;-77
2021/09/25 08:31:38;;;;;;;37.70;18.92;;;;;;;;;;4325915;33;20181;-76
2021/09/25 08:34:26;;;;;;;40.53;19.17;;;;;;;;;;4331953;33;20656;-77
2021/09/25 08:37:12;;;;;;;41.92;20.48;;;;;;;;;;4322173;33;20198;-76
2021/09/25 08:39:58;;;;;;;44.10;21.65;;;;;;;;;;4333198;33;20189;-77
2021/09/25 08:48:52;;;;;;;41.58;20.27;;;;;;;;;;4248378;33;20215;-77
2021/09/25 08:51:35;;;;;;;41.28;18.87;;;;;;;;;;4332546;33;20552;-76
2021/09/25 08:54:07;;;;;;;47.28;20.70;;;;;;;;;;4331100;33;20261;-76
2021/09/25 08:56:32;;;;;;;40.55;20.17;;;;;;;;;;4319313;33;20203;-77
2021/09/25 09:02:19;;;;;;;42.70;21.98;;;;;;;;;;4336208;33;20202;-78
2021/09/25 09:04:50;;;;;;;40.95;21.80;;;;;;;;;;4330220;33;20190;-78
2021/09/25 09:07:19;;;;;;;35.72;20.90;;;;;;;;;;4331360;33;20232;-77
2021/09/25 09:10:35;;;;;;;45.33;22.90;;;;;;;;;;4317315;33;20163;-78
2021/09/25 09:13:03;;;;;;;39.58;21.17;;;;;;;;;;4246040;33;20674;-77
2021/09/25 09:15:44;;;;;;;44.55;23.73;;;;;;;;;;4270568;33;20173;-77
2021/09/25 09:18:32;;;;;;;40.80;22.08;;;;;;;;;;4304304;33;20159;-77
2021/09/25 09:21:29;;;;;;;46.97;24.25;;;;;;;;;;4329353;33;20163;-77
2021/09/25 09:24:33;;;;;;;51.30;25.50;;;;;;;;;;4315110;33;20168;-77
2021/09/25 09:27:28;;;;;;;;;;;;;;;;;;;;;
2021/09/25 09:30:34;;;;;;;44.03;24.35;;;;;;;;;;4331000;33;20170;-77
2021/09/25 09:33:29;;;;;;;44.00;22.42;;;;;;;;;;4319018;33;20855;-77
2021/09/25 09:36:10;;;;;;;48.25;25.27;;;;;;;;;;4281980;33;20188;-77
2021/09/25 09:38:50;;;;;;;42.15;24.45;;;;;;;;;;4312805;33;20213;-77
2021/09/25 09:41:42;;;;;;;40.53;23.42;;;;;;;;;;4328444;33;20182;-77
2021/09/25 09:44:28;;;;;;;41.10;23.55;;;;;;;;;;4317692;33;20520;-77
2021/09/25 09:47:05;;;;;;;41.20;23.75;;;;;;;;;;4317338;33;20163;-79
2021/09/25 09:49:35;;;;;;;42.80;22.73;;;;;;;;;;4326236;33;20155;-78
2021/09/25 09:52:09;;;;;;;44.38;24.90;;;;;;;;;;4331465;33;20183;-75
2021/09/25 09:54:36;;;;;;;44.30;24.08;;;;;;;;;;4347323;33;20189;-77
2021/09/25 09:57:04;;;;;;;43.05;25.55;;;;;;;;;;4328038;33;20155;-77
2021/09/25 09:59:29;;;;;;;42.88;24.65;;;;;;;;;;4331729;33;20265;-77
2021/09/25 10:01:57;;;;;;;43.05;23.48;;;;;;;;;;4328828;33;20172;-77
2021/09/25 10:04:22;;;;;;;43.05;23.25;;;;;;;;;;4331482;33;20167;-79
2021/09/25 10:06:59;;;;;;;44.08;24.27;;;;;;;;;;4318981;33;20179;-78
2021/09/25 10:09:25;;;;;;;43.10;24.77;;;;;;;;;;4321518;33;20179;-77
2021/09/25 10:12:26;;;;;;;47.38;25.37;;;;;;;;;;4333806;33;20151;-79
2021/09/25 10:14:57;;;;;;;50.83;26.80;;;;;;;;;;4333083;33;20179;-77
2021/09/25 10:17:22;;;;;;;50.03;28.90;;;;;;;;;;4334801;33;20238;-76
2021/09/25 10:19:48;;;;;;;53.45;28.65;;;;;;;;;;4334652;33;20159;-77
2021/09/25 10:22:26;;;;;;;;;;;;;;;;;;;;;
2021/09/25 10:25:02;;;;;;;51.33;26.27;;;;;;;;;;4338613;33;20151;-78
2021/09/25 10:27:45;;;;;;;46.78;24.85;;;;;;;;;;4338386;33;20159;-77
2021/09/25 10:30:14;;;;;;;43.47;24.00;;;;;;;;;;4333478;33;20644;-77
2021/09/25 10:32:48;;;;;;;43.25;25.00;;;;;;;;;;4332695;33;20156;-78
2021/09/25 10:35:45;;;;;;;45.45;26.45;;;;;;;;;;4325055;33;20182;-77
2021/09/25 10:38:31;;;;;;;44.13;25.95;;;;;;;;;;4330942;33;20191;-77
2021/09/25 10:41:11;;;;;;;43.65;25.35;;;;;;;;;;4342281;33;20254;-78
2021/09/25 10:44:06;;;;;;;42.28;24.90;;;;;;;;;;4346133;33;20177;-77
2021/09/25 10:47:09;;;;;;;;;;;;;;;;;;;;;
2021/09/25 10:49:48;;;;;;;49.05;26.58;;;;;;;;;;4340351;33;20345;-78
2021/09/25 10:52:22;;;;;;;45.03;24.23;;;;;;;;;;4321185;33;20152;-77
2021/09/25 10:58:16;;;;;;;36.75;21.83;;;;;;;;;;4280061;33;20164;-78
2021/09/25 11:00:57;;;;;;;37.80;23.60;;;;;;;;;;4318153;33;20672;-77
2021/09/25 11:03:49;;;;;;;36.20;23.10;;;;;;;;;;4329466;33;20241;-79
2021/09/25 11:06:22;;;;;;;34.47;21.23;;;;;;;;;;4304323;33;20235;-77
2021/09/25 11:09:11;;;;;;;36.45;21.67;;;;;;;;;;4319584;33;20214;-77
2021/09/25 11:11:38;;;;;;;39.42;22.67;;;;;;;;;;4319386;33;20156;-78
2021/09/25 11:14:28;;;;;;;41.33;24.75;;;;;;;;;;4331263;33;20155;-77
2021/09/25 11:17:24;;;;;;;36.90;22.65;;;;;;;;;;4332887;33;20151;-78
2021/09/25 11:19:56;;;;;;;36.92;22.92;;;;;;;;;;4333290;33;20188;-78
2021/09/25 11:23:05;;;;;;;;;;;;;;;;;;;;;
2021/09/25 11:25:47;;;;;;;35.58;21.73;;;;;;;;;;4345655;33;20164;-78
2021/09/25 11:28:33;;;;;;;;;;;;;;;;;;;;;
2021/09/25 11:31:08;;;;;;;34.60;19.65;;;;;;;;;;4345324;33;20156;-76
2021/09/25 11:33:38;;;;;;;34.28;21.67;;;;;;;;;;4333309;33;20181;-78
2021/09/25 11:36:17;;;;;;;31.33;19.73;;;;;;;;;;4333366;33;20171;-77
2021/09/25 11:38:51;;;;;;;38.38;23.92;;;;;;;;;;4333042;33;20159;-77
2021/09/25 11:41:43;;;;;;;38.28;22.95;;;;;;;;;;4331696;33;20234;-79
2021/09/25 11:44:17;;;;;;;40.92;22.80;;;;;;;;;;4332251;33;20144;-77
2021/09/25 11:46:42;;;;;;;37.75;24.17;;;;;;;;;;4318098;33;20159;-77
2021/09/25 11:49:41;;;;;;;34.20;22.65;;;;;;;;;;4319291;33;20523;-78
2021/09/25 11:52:12;;;;;;;38.50;24.17;;;;;;;;;;4318757;33;20207;-77
2021/09/25 11:54:37;;;;;;;39.33;23.85;;;;;;;;;;4327796;33;20207;-78
2021/09/25 11:57:11;;;;;;;36.67;23.17;;;;;;;;;;4330973;33;20198;-77
2021/09/25 11:59:36;;;;;;;38.47;23.00;;;;;;;;;;4319774;33;20729;-78
2021/09/25 12:05:08;;;;;;;36.35;21.77;;;;;;;;;;4286077;33;20780;-78
2021/09/25 12:07:40;;;;;;;38.55;23.73;;;;;;;;;;4312600;33;20168;-77
2021/09/25 12:13:13;;;;;;;29.15;18.90;;;;;;;;;;4328695;33;20178;-77
2021/09/25 12:15:40;;;;;;;31.08;21.10;;;;;;;;;;4317710;33;20194;-77
2021/09/25 12:18:18;;;;;;;24.92;17.20;;;;;;;;;;4330071;33;20160;-77
2021/09/25 12:20:45;;;;;;;33.85;20.77;;;;;;;;;;4328922;33;20218;-77
2021/09/25 12:23:11;;;;;;;26.58;17.30;;;;;;;;;;4332145;33;20203;-77
2021/09/25 12:25:40;;;;;;;24.23;16.50;;;;;;;;;;4332216;33;20186;-77
2021/09/25 12:28:25;;;;;;;25.17;15.82;;;;;;;;;;4333153;33;20168;-78
2021/09/25 12:33:48;;;;;;;27.35;16.95;;;;;;;;;;4322904;33;20485;-79
2021/09/25 12:36:17;;;;;;;26.40;16.80;;;;;;;;;;4330403;33;20159;-77
2021/09/25 12:38:48;;;;;;;23.27;16.02;;;;;;;;;;4330248;33;20597;-79
2021/09/25 12:41:26;;;;;;;21.15;15.23;;;;;;;;;;4333316;33;20151;-78
2021/09/25 12:43:55;;;;;;;24.33;17.98;;;;;;;;;;4314997;33;20206;-78
2021/09/25 12:46:34;;;;;;;25.67;18.15;;;;;;;;;;4325293;33;20148;-78
2021/09/25 12:52:19;;;;;;;30.35;20.77;;;;;;;;;;4331008;33;20158;-77
2021/09/25 12:54:46;;;;;;;29.67;18.40;;;;;;;;;;4318117;33;20207;-78
2021/09/25 12:57:16;;;;;;;30.73;21.33;;;;;;;;;;4317600;33;20176;-77
2021/09/25 12:59:43;;;;;;;29.73;19.58;;;;;;;;;;4324024;33;20194;-78
2021/09/25 13:02:27;;;;;;;31.85;21.10;;;;;;;;;;4329991;33;20242;-77
2021/09/25 13:04:54;;;;;;;29.92;21.37;;;;;;;;;;4317734;33;20179;-78
2021/09/25 13:07:38;;;;;;;28.62;19.08;;;;;;;;;;4321529;33;20613;-77
2021/09/25 13:10:05;;;;;;;29.23;20.70;;;;;;;;;;4332725;33;20171;-77
2021/09/25 13:12:42;;;;;;;26.52;18.65;;;;;;;;;;4332393;33;20187;-76
2021/09/25 13:15:12;;;;;;;31.02;19.98;;;;;;;;;;4332019;33;20163;-77
2021/09/25 13:17:38;;;;;;;29.05;19.80;;;;;;;;;;4331968;33;20652;-77
2021/09/25 13:20:05;;;;;;;27.83;19.15;;;;;;;;;;4325047;33;20167;-79
2021/09/25 13:22:33;;;;;;;27.17;19.87;;;;;;;;;;4331664;33;20281;-77
2021/09/25 13:25:02;;;;;;;23.98;16.70;;;;;;;;;;4331412;33;20156;-77
2021/09/25 13:27:28;;;;;;;23.60;15.57;;;;;;;;;;4331868;33;20158;-74
2021/09/25 13:30:01;;;;;;;17.02;13.25;;;;;;;;;;4320824;33;20160;-78
2021/09/25 13:32:28;;;;;;;22.00;14.05;;;;;;;;;;4340349;33;20202;-78
2021/09/25 13:34:53;;;;;;;18.35;13.18;;;;;;;;;;4332185;33;20164;-77
2021/09/25 13:37:18;;;;;;;18.90;12.90;;;;;;;;;;4331856;33;20163;-77
2021/09/25 13:39:44;;;;;;;21.80;12.40;;;;;;;;;;4345581;33;20202;-78
2021/09/25 13:42:10;;;;;;;16.35;12.98;;;;;;;;;;4319784;33;20530;-78
2021/09/25 13:44:57;;;;;;;15.77;11.10;;;;;;;;;;4317376;33;20663;-77
2021/09/25 13:47:36;;;;;;;17.45;12.70;;;;;;;;;;4330241;33;20238;-77
2021/09/25 13:50:11;;;;;;;15.88;11.82;;;;;;;;;;4315226;33;20178;-78
2021/09/25 13:52:54;;;;;;;20.25;12.27;;;;;;;;;;4317999;33;20227;-77
2021/09/25 13:55:30;;;;;;;18.00;11.05;;;;;;;;;;4318959;33;20164;-77
2021/09/25 13:57:55;;;;;;;15.00;10.82;;;;;;;;;;4334028;33;20191;-78
2021/09/25 14:00:20;;;;;;;18.77;11.50;;;;;;;;;;4320474;33;20501;-78
2021/09/25 14:02:56;;;;;;;;;;;;;;;;;;;;;
2021/09/25 14:05:28;;;;;;;17.37;11.00;;;;;;;;;;4330728;33;20186;-78
2021/09/25 14:07:56;;;;;;;17.30;10.93;;;;;;;;;;4333870;33;20162;-78
2021/09/25 14:10:22;;;;;;;13.68;9.77;;;;;;;;;;4329738;33;20209;-77
2021/09/25 14:12:47;;;;;;;12.02;9.15;;;;;;;;;;4347943;33;20535;-78
2021/09/25 14:15:16;;;;;;;12.37;8.20;;;;;;;;;;4334940;33;20202;-78
2021/09/25 14:18:06;;;;;;;13.50;9.68;;;;;;;;;;4335000;33;20163;-78
2021/09/25 14:20:36;;;;;;;12.63;9.82;;;;;;;;;;4348210;33;20140;-78
2021/09/25 14:23:02;;;;;;;11.85;9.23;;;;;;;;;;4334820;33;20214;-78
2021/09/25 14:25:28;;;;;;;17.45;10.30;;;;;;;;;;4347763;33;20140;-78
2021/09/25 14:27:59;;;;;;;15.57;11.90;;;;;;;;;;4332839;33;20178;-78
2021/09/25 14:30:36;;;;;;;16.05;11.88;;;;;;;;;;4319658;33;20194;-78
2021/09/25 14:33:04;;;;;;;16.62;11.88;;;;;;;;;;4324035;33;20159;-78
2021/09/25 14:35:29;;;;;;;19.08;11.18;;;;;;;;;;4333503;33;20190;-78
2021/09/25 14:37:57;;;;;;;18.02;11.60;;;;;;;;;;4334079;33;20167;-78
2021/09/25 14:40:25;;;;;;;20.35;13.48;;;;;;;;;;4334336;33;20522;-78
2021/09/25 14:42:51;;;;;;;16.65;12.88;;;;;;;;;;4347385;33;20182;-78
2021/09/25 14:45:29;;;;;;;20.30;14.60;;;;;;;;;;4333982;33;20238;-78
2021/09/25 14:47:57;;;;;;;19.08;12.98;;;;;;;;;;4332125;33;20541;-79
2021/09/25 14:50:38;;;;;;;17.60;13.82;;;;;;;;;;4334231;33;20163;-78
2021/09/25 14:53:04;;;;;;;20.90;15.32;;;;;;;;;;4332034;33;20593;-78
2021/09/25 14:56:01;;;;;;;;;;;;;;;;;;;;;
2021/09/25 14:58:15;;;;;;;25.58;17.73;;;;;;;;;;4334912;33;20193;-78
2021/09/25 15:00:41;;;;;;;28.60;20.90;;;;;;;;;;4333424;33;20242;-78
2021/09/25 15:03:06;;;;;;;30.42;20.65;;;;;;;;;;4333922;33;20231;-79
2021/09/25 15:05:34;;;;;;;30.48;20.30;;;;;;;;;;4333812;33;20167;-78
2021/09/25 15:08:00;;;;;;;32.70;24.70;;;;;;;;;;4333347;33;20174;-78
2021/09/25 15:10:25;;;;;;;27.95;20.52;;;;;;;;;;4333133;33;20183;-77
2021/09/25 15:13:00;;;;;;;28.70;20.20;;;;;;;;;;4333351;33;20226;-78
2021/09/25 15:15:26;;;;;;;31.58;22.10;;;;;;;;;;4333038;33;20608;-77
2021/09/25 15:17:51;;;;;;;30.35;22.25;;;;;;;;;;4333511;33;20225;-78
2021/09/25 15:20:16;;;;;;;32.67;22.20;;;;;;;;;;4333465;33;20160;-79
2021/09/25 15:22:52;;;;;;;29.98;22.35;;;;;;;;;;4334313;33;20159;-79
2021/09/25 15:25:20;;;;;;;34.33;22.55;;;;;;;;;;4333300;33;20155;-78
2021/09/25 15:27:47;;;;;;;34.47;23.95;;;;;;;;;;4333259;33;20198;-78
2021/09/25 15:30:13;;;;;;;34.60;24.30;;;;;;;;;;4333075;33;20235;-77
2021/09/25 15:32:38;;;;;;;39.72;22.42;;;;;;;;;;4333263;33;20190;-79
2021/09/25 15:35:04;;;;;;;34.22;23.73;;;;;;;;;;4332992;33;20526;-78
2021/09/25 15:37:38;;;;;;;34.25;24.02;;;;;;;;;;4333513;33;20473;-78
2021/09/25 15:40:22;;;;;;;37.40;25.20;;;;;;;;;;4333414;33;20220;-78
2021/09/25 15:43:21;;;;;;;36.10;22.90;;;;;;;;;;4345254;33;20232;-78
2021/09/25 15:45:50;;;;;;;36.42;22.00;;;;;;;;;;4333498;33;20167;-78
2021/09/25 15:48:17;;;;;;;32.28;20.67;;;;;;;;;;4333213;33;20294;-78
2021/09/25 15:50:42;;;;;;;32.30;17.92;;;;;;;;;;4332506;33;20175;-78
2021/09/25 15:53:08;;;;;;;35.90;19.98;;;;;;;;;;4333351;33;20186;-78
2021/09/25 15:55:33;;;;;;;35.33;18.85;;;;;;;;;;4333469;33;20159;-77
2021/09/25 15:58:00;;;;;;;38.00;19.42;;;;;;;;;;4333844;33;20450;-77
2021/09/25 16:00:25;;;;;;;33.15;19.62;;;;;;;;;;4333381;33;20239;-77
2021/09/25 16:02:51;;;;;;;31.98;19.48;;;;;;;;;;4332988;33;20168;-78